createdAt,value
2023-04-11T00:00:15.634Z,97935.59
2023-04-11T00:02:42.509Z,97949.34
2023-04-11T00:05:09.993Z,97945.00
2023-04-11T00:07:36.758Z,97936.41
2023-04-11T00:10:03.820Z,97918.34
2023-04-11T00:12:30.561Z,97907.34
2023-04-11T00:14:57.417Z,97892.44
2023-04-11T00:17:24.333Z,97876.38
2023-04-11T00:19:53.545Z,97876.69
2023-04-11T00:22:20.266Z,97872.00
2023-04-11T00:24:46.931Z,97864.56
2023-04-11T00:27:13.586Z,97863.38
2023-04-11T00:29:41.062Z,97854.31
2023-04-11T00:32:08.173Z,97858.69
2023-04-11T00:34:35.022Z,97857.88
2023-04-11T00:37:01.897Z,97849.31
2023-04-11T00:39:30.689Z,97847.28
2023-04-11T00:42:08.026Z,97851.63
2023-04-11T00:44:35.469Z,97868.47
2023-04-11T00:47:03.493Z,97866.88
2023-04-11T00:54:38.013Z,97856.66
2023-04-11T00:57:05.019Z,97856.66
2023-04-11T00:59:33.424Z,97851.94
2023-04-11T01:02:01.879Z,97844.91
2023-04-11T01:04:29.736Z,97840.56
2023-04-11T01:07:04.359Z,97836.31
2023-04-11T01:09:33.678Z,97839.09
2023-04-11T01:12:01.669Z,97837.91
2023-04-11T01:14:28.929Z,97852.03
2023-04-11T01:16:56.895Z,97848.09
2023-04-11T01:19:26.798Z,97845.72
2023-04-11T01:21:54.559Z,97845.63
2023-04-11T01:24:21.630Z,97861.31
2023-04-11T01:26:48.324Z,97865.25
2023-04-11T01:29:15.002Z,97846.44
2023-04-11T01:31:41.825Z,97851.66
2023-04-11T01:34:08.642Z,97859.13
2023-04-11T01:36:35.451Z,97860.75
2023-04-11T01:39:02.175Z,97870.13
2023-04-11T01:44:05.630Z,97865.19
2023-04-11T01:46:32.657Z,97856.66
2023-04-11T01:49:01.693Z,97861.78
2023-04-11T01:51:28.611Z,97862.66
2023-04-11T01:53:55.642Z,97865.88
2023-04-11T01:56:22.453Z,97871.38
2023-04-11T01:58:49.261Z,97877.69
2023-04-11T02:01:19.929Z,97886.38
2023-04-11T02:03:46.859Z,97884.88
2023-04-11T02:06:15.439Z,97878.19
2023-04-11T02:08:42.399Z,97893.97
2023-04-11T02:11:09.238Z,97911.16
2023-04-11T02:13:36.115Z,97914.75
2023-04-11T02:16:18.390Z,97921.00
2023-04-11T02:18:46.009Z,97922.19
2023-04-11T02:21:12.753Z,97930.03
2023-04-11T02:23:39.440Z,97946.06
2023-04-11T02:26:06.228Z,97939.81
2023-04-11T02:28:32.997Z,97950.75
2023-04-11T02:30:59.771Z,97959.31
2023-04-11T02:33:26.511Z,97963.22
2023-04-11T02:35:53.281Z,97961.25
2023-04-11T02:38:20.078Z,97973.72
2023-04-11T02:40:47.073Z,97961.53
2023-04-11T02:43:13.884Z,97936.84
2023-04-11T02:45:41.363Z,97937.28
2023-04-11T02:48:08.448Z,97930.16
2023-04-11T02:50:35.208Z,97926.63
2023-04-11T02:53:01.903Z,97937.22
2023-04-11T02:55:28.541Z,97944.22
2023-04-11T02:57:55.206Z,97935.25
2023-04-11T03:00:22.331Z,97936.75
2023-04-11T03:02:49.713Z,97938.34
2023-04-11T03:05:16.594Z,97946.50
2023-04-11T03:07:44.279Z,97955.88
2023-04-11T03:10:11.130Z,97944.13
2023-04-11T03:12:37.805Z,97944.94
2023-04-11T03:15:04.764Z,97953.16
2023-04-11T03:17:31.454Z,97965.59
2023-04-11T03:19:58.152Z,97974.63
2023-04-11T03:22:25.368Z,97969.50
2023-04-11T03:24:52.042Z,97959.34
2023-04-11T03:27:18.712Z,97954.59
2023-04-11T03:29:45.371Z,97959.22
2023-04-11T03:32:12.048Z,97962.78
2023-04-11T03:34:38.681Z,97960.88
2023-04-11T03:37:05.432Z,97968.25
2023-04-11T03:39:32.075Z,97965.94
2023-04-11T03:41:58.785Z,97935.44
2023-04-11T03:44:25.611Z,97942.41
2023-04-11T03:46:52.288Z,97934.97
2023-04-11T03:49:18.937Z,97943.81
2023-04-11T03:51:46.375Z,97962.53
2023-04-11T03:54:13.084Z,97943.84
2023-04-11T03:56:39.748Z,97938.31
2023-04-11T03:59:06.419Z,97941.00
2023-04-11T04:01:33.115Z,97938.31
2023-04-11T04:04:01.194Z,97950.75
2023-04-11T04:06:28.712Z,97957.78
2023-04-11T04:08:55.517Z,97965.94
2023-04-11T04:11:22.232Z,97959.97
2023-04-11T04:13:48.903Z,97968.50
2023-04-11T04:16:17.218Z,97960.59
2023-04-11T04:18:43.971Z,97963.81
2023-04-11T04:23:47.646Z,97980.50
2023-04-11T04:26:16.383Z,97980.88
2023-04-11T04:28:47.500Z,97978.44
2023-04-11T04:31:15.732Z,97975.66
2023-04-11T04:33:43.203Z,97987.06
2023-04-11T04:36:12.571Z,97996.78
2023-04-11T04:38:42.321Z,98007.31
2023-04-11T04:41:15.299Z,98008.13
2023-04-11T04:43:42.814Z,98008.06
2023-04-11T04:46:09.769Z,98005.75
2023-04-11T04:48:36.820Z,98020.53
2023-04-11T04:51:05.063Z,98027.50
2023-04-11T04:53:34.958Z,98030.63
2023-04-11T04:56:02.483Z,98036.47
2023-04-11T04:58:29.302Z,98034.94
2023-04-11T05:00:56.351Z,98046.13
2023-04-11T05:03:23.366Z,98046.91
2023-04-11T05:05:50.243Z,98048.13
2023-04-11T05:08:20.116Z,98056.94
2023-04-11T05:10:46.800Z,98067.34
2023-04-11T05:13:13.436Z,98071.50
2023-04-11T05:15:40.078Z,98077.03
2023-04-11T05:18:06.772Z,98086.22
2023-04-11T05:20:33.598Z,98092.53
2023-04-11T05:23:00.332Z,98100.97
2023-04-11T05:25:27.379Z,98093.63
2023-04-11T05:30:32.040Z,98096.66
2023-04-11T05:32:58.837Z,98100.97
2023-04-11T05:35:25.629Z,98106.19
2023-04-11T05:37:52.353Z,98092.94
2023-04-11T05:40:19.116Z,98094.03
2023-04-11T05:42:46.121Z,98095.59
2023-04-11T05:45:12.924Z,98094.81
2023-04-11T05:47:39.650Z,98097.97
2023-04-11T05:50:07.451Z,98111.28
2023-04-11T05:52:34.148Z,98098.00
2023-04-11T05:55:01.571Z,98092.31
2023-04-11T05:57:28.190Z,98101.19
2023-04-11T05:59:54.796Z,98108.56
2023-04-11T06:02:21.789Z,98111.41
2023-04-11T06:07:27.813Z,98114.78
2023-04-11T06:09:54.956Z,98109.63
2023-04-11T06:12:21.607Z,98113.22
2023-04-11T06:14:48.289Z,98126.94
2023-04-11T06:17:17.434Z,98121.34
2023-04-11T06:19:44.086Z,98115.13
2023-04-11T06:22:11.064Z,98121.94
2023-04-11T06:24:40.840Z,98126.88
2023-04-11T06:29:46.627Z,98128.88
2023-04-11T06:32:13.417Z,98128.63
2023-04-11T06:34:40.236Z,98136.97
2023-04-11T06:37:07.798Z,98135.66
2023-04-11T06:39:35.064Z,98142.69
2023-04-11T06:42:02.536Z,98144.63
2023-04-11T06:44:29.413Z,98147.00
2023-04-11T06:46:56.932Z,98154.84
2023-04-11T06:52:01.929Z,98178.59
2023-04-11T06:54:28.657Z,98179.50
2023-04-11T06:56:57.390Z,98167.81
2023-04-11T06:59:24.793Z,98175.75
2023-04-11T07:04:23.054Z,98186.78
2023-04-11T07:06:49.919Z,98182.13
2023-04-11T07:09:16.622Z,98176.06
2023-04-11T07:11:43.368Z,98192.97
2023-04-11T07:16:47.416Z,98189.81
2023-04-11T07:19:14.196Z,98199.25
2023-04-11T07:21:40.903Z,98205.75
2023-04-11T07:26:42.631Z,98212.25
2023-04-11T07:31:48.139Z,98219.72
2023-04-11T07:34:14.893Z,98226.06
2023-04-11T07:36:42.300Z,98223.59
2023-04-11T07:41:45.483Z,98223.13
2023-04-11T07:44:12.150Z,98233.88
2023-04-11T07:46:38.828Z,98219.84
2023-04-11T07:49:05.653Z,98227.00
2023-04-11T07:51:33.414Z,98219.59
2023-04-11T07:56:31.455Z,98229.84
2023-04-11T07:58:58.698Z,98227.63
2023-04-11T08:01:27.152Z,98211.59
2023-04-11T08:03:55.137Z,98218.69
2023-04-11T08:06:22.579Z,98211.53
2023-04-11T08:08:50.945Z,98217.03
2023-04-11T08:13:48.940Z,98223.19
2023-04-11T08:16:16.024Z,98209.94
2023-04-11T08:21:23.805Z,98214.94
2023-04-11T08:23:53.831Z,98203.31
2023-04-11T08:26:21.346Z,98215.97
2023-04-11T08:28:48.034Z,98214.69
2023-04-11T08:31:14.807Z,98221.72
2023-04-11T08:33:41.888Z,98226.41
2023-04-11T08:36:10.682Z,98222.59
2023-04-11T08:38:37.964Z,98226.94
2023-04-11T08:41:04.905Z,98224.75
2023-04-11T08:48:40.917Z,98236.44
2023-04-11T08:51:07.933Z,98233.16
2023-04-11T08:53:36.934Z,98236.31
2023-04-11T08:56:04.320Z,98225.44
2023-04-11T09:01:27.036Z,98250.66
2023-04-11T09:03:53.852Z,98236.34
2023-04-11T09:06:21.105Z,98242.47
2023-04-11T09:08:47.921Z,98238.97
2023-04-11T09:14:09.124Z,98241.78
2023-04-11T09:19:26.455Z,98241.53
2023-04-11T09:21:54.549Z,98233.69
2023-04-11T09:24:22.404Z,98235.38
2023-04-11T09:26:49.398Z,98228.50
2023-04-11T09:29:36.310Z,98221.88
2023-04-11T09:37:20.128Z,98235.25
2023-04-11T09:42:33.084Z,98231.25
2023-04-11T09:47:34.159Z,98226.22
2023-04-11T09:55:13.134Z,98221.38
2023-04-11T10:00:32.578Z,98223.63
2023-04-11T10:02:59.477Z,98228.03
2023-04-11T10:05:28.438Z,98227.34
2023-04-11T10:10:46.578Z,98236.66
2023-04-11T10:16:28.752Z,98239.84
2023-04-11T10:21:30.140Z,98251.72
2023-04-11T10:24:17.873Z,98256.03
2023-04-11T10:27:03.969Z,98254.88
2023-04-11T10:32:11.133Z,98247.03
2023-04-11T10:34:59.372Z,98238.28
2023-04-11T10:40:11.704Z,98245.47
2023-04-11T10:42:41.097Z,98250.16
2023-04-11T10:48:05.974Z,98256.81
2023-04-11T10:50:33.657Z,98258.03
2023-04-11T10:53:03.638Z,98262.72
2023-04-11T10:55:33.212Z,98251.69
2023-04-11T10:58:09.855Z,98255.63
2023-04-11T11:00:52.567Z,98258.38
2023-04-11T11:06:02.624Z,98259.56
2023-04-11T11:08:34.832Z,98259.59
2023-04-11T11:11:03.486Z,98261.16
2023-04-11T11:13:51.070Z,98258.03
2023-04-11T11:19:06.534Z,98253.88
2023-04-11T11:21:34.928Z,98254.69
2023-04-11T11:24:03.162Z,98252.28
2023-04-11T11:29:10.263Z,98252.59
2023-04-11T11:31:42.207Z,98254.56
2023-04-11T11:34:23.040Z,98248.50
2023-04-11T11:41:54.953Z,98245.06
2023-04-11T11:44:26.350Z,98242.56
2023-04-11T11:47:06.828Z,98244.13
2023-04-11T11:49:51.209Z,98242.56
2023-04-11T11:55:17.940Z,98247.28
2023-04-11T11:57:46.959Z,98249.50
2023-04-11T12:00:15.138Z,98252.25
2023-04-11T12:02:43.238Z,98257.00
2023-04-11T12:05:13.200Z,98251.66
2023-04-11T12:10:16.910Z,98254.81
2023-04-11T12:12:54.026Z,98255.66
2023-04-11T12:15:23.380Z,98259.97
2023-04-11T12:17:54.331Z,98258.81
2023-04-11T12:22:56.711Z,98254.88
2023-04-11T12:25:25.874Z,98256.03
2023-04-11T12:27:52.577Z,98254.88
2023-04-11T12:30:19.231Z,98261.94
2023-04-11T12:32:46.074Z,98257.19
2023-04-11T12:35:13.634Z,98263.09
2023-04-11T12:40:13.058Z,98250.16
2023-04-11T12:42:53.109Z,98262.69
2023-04-11T12:45:22.376Z,98262.59
2023-04-11T12:47:49.196Z,98254.66
2023-04-11T12:50:16.053Z,98253.06
2023-04-11T12:52:42.835Z,98260.16
2023-04-11T12:55:09.986Z,98252.03
2023-04-11T12:57:36.865Z,98253.97
2023-04-11T13:00:07.439Z,98254.84
2023-04-11T13:02:42.170Z,98267.41
2023-04-11T13:05:11.981Z,98271.38
2023-04-11T13:07:39.327Z,98262.34
2023-04-11T13:10:09.453Z,98254.91
2023-04-11T13:12:41.604Z,98263.13
2023-04-11T13:15:10.000Z,98253.66
2023-04-11T13:17:36.992Z,98248.97
2023-04-11T13:20:13.324Z,98253.25
2023-04-11T13:22:44.546Z,98244.53
2023-04-11T13:30:20.903Z,98246.91
2023-04-11T13:35:26.871Z,98257.00
2023-04-11T13:37:54.141Z,98248.81
2023-04-11T13:42:52.415Z,98246.94
2023-04-11T13:45:19.179Z,98247.31
2023-04-11T13:47:45.939Z,98244.53
2023-04-11T13:50:12.781Z,98244.56
2023-04-11T13:52:39.856Z,98237.19
2023-04-11T13:55:06.999Z,98241.47
2023-04-11T13:57:33.631Z,98238.28
2023-04-11T14:05:02.704Z,98239.94
2023-04-11T14:07:29.382Z,98248.59
2023-04-11T14:14:58.737Z,98246.22
2023-04-11T14:17:25.742Z,98245.84
2023-04-11T14:19:52.410Z,98238.41
2023-04-11T14:22:19.290Z,98235.66
2023-04-11T14:24:45.997Z,98241.50
2023-04-11T14:27:12.577Z,98247.00
2023-04-11T14:32:18.561Z,98236.03
2023-04-11T14:34:46.600Z,98229.72
2023-04-11T14:39:51.111Z,98238.25
2023-04-11T14:42:17.764Z,98226.50
2023-04-11T14:47:15.949Z,98236.66
2023-04-11T14:49:42.801Z,98238.56
2023-04-11T14:52:09.530Z,98234.22
2023-04-11T14:54:36.314Z,98225.31
2023-04-11T14:57:03.982Z,98236.00
2023-04-11T14:59:31.113Z,98231.69
2023-04-11T15:01:58.457Z,98237.22
2023-04-11T15:07:04.903Z,98227.78
2023-04-11T15:12:09.549Z,98219.50
2023-04-11T15:14:36.242Z,98228.16
2023-04-11T15:17:02.903Z,98222.69
2023-04-11T15:19:29.520Z,98219.16
2023-04-11T15:21:56.157Z,98214.84
2023-04-11T15:24:22.823Z,98217.97
2023-04-11T15:29:26.891Z,98219.13
2023-04-11T15:31:53.554Z,98219.53
2023-04-11T15:34:22.244Z,98208.53
2023-04-11T15:36:49.447Z,98214.06
2023-04-11T15:39:16.197Z,98208.53
2023-04-11T15:41:42.993Z,98211.63
2023-04-11T15:46:41.181Z,98205.38
2023-04-11T15:49:07.872Z,98210.88
2023-04-11T15:51:34.564Z,98200.66
2023-04-11T15:56:35.200Z,98197.59
2023-04-11T16:01:40.574Z,98201.53
2023-04-11T16:04:07.602Z,98202.31
2023-04-11T16:06:34.309Z,98194.09
2023-04-11T16:09:01.131Z,98196.03
2023-04-11T16:11:27.828Z,98183.47
2023-04-11T16:13:54.671Z,98190.94
2023-04-11T16:16:21.555Z,98189.34
2023-04-11T16:18:48.257Z,98182.69
2023-04-11T16:23:54.821Z,98179.59
2023-04-11T16:26:21.774Z,98177.63
2023-04-11T16:28:49.184Z,98180.00
2023-04-11T16:31:22.103Z,98177.25
2023-04-11T16:33:48.839Z,98173.72
2023-04-11T16:36:16.669Z,98181.94
2023-04-11T16:38:43.777Z,98179.59
2023-04-11T16:41:10.548Z,98178.41
2023-04-11T16:43:37.198Z,98163.50
2023-04-11T16:46:04.123Z,98166.66
2023-04-11T16:48:31.797Z,98169.38
2023-04-11T16:50:58.588Z,98174.84
2023-04-11T16:53:25.197Z,98170.94
2023-04-11T16:58:25.043Z,98165.41
2023-04-11T17:06:02.470Z,98163.78
2023-04-11T17:13:49.173Z,98157.91
2023-04-11T17:16:19.829Z,98151.63
2023-04-11T17:18:46.517Z,98144.56
2023-04-11T17:21:13.149Z,98147.66
2023-04-11T17:23:43.438Z,98150.03
2023-04-11T17:26:11.117Z,98144.16
2023-04-11T17:28:38.911Z,98142.19
2023-04-11T17:31:13.326Z,98141.41
2023-04-11T17:33:40.726Z,98147.25
2023-04-11T17:36:08.387Z,98147.63
2023-04-11T17:38:35.218Z,98143.72
2023-04-11T17:46:06.107Z,98140.16
2023-04-11T17:48:32.734Z,98144.41
2023-04-11T17:50:59.524Z,98145.56
2023-04-11T17:55:58.481Z,98143.97
2023-04-11T18:01:04.689Z,98153.69
2023-04-11T18:03:35.402Z,98158.75
2023-04-11T18:08:48.987Z,98158.75
2023-04-11T18:11:17.454Z,98150.47
2023-04-11T18:16:21.617Z,98142.31
2023-04-11T18:21:21.610Z,98140.56
2023-04-11T18:23:48.272Z,98150.63
2023-04-11T18:26:14.911Z,98136.53
2023-04-11T18:28:41.616Z,98142.09
2023-04-11T18:31:08.936Z,98141.69
2023-04-11T18:36:07.387Z,98148.78
2023-04-11T18:38:34.142Z,98151.50
2023-04-11T18:43:32.337Z,98159.66
2023-04-11T18:48:33.511Z,98169.19
2023-04-11T18:51:00.686Z,98166.88
2023-04-11T18:53:28.538Z,98164.22
2023-04-11T18:55:55.254Z,98167.41
2023-04-11T18:58:25.545Z,98158.75
2023-04-11T19:00:52.979Z,98157.78
2023-04-11T19:03:19.928Z,98162.75
2023-04-11T19:08:18.682Z,98146.78
2023-04-11T19:10:45.332Z,98153.00
2023-04-11T19:13:12.134Z,98158.16
2023-04-11T19:15:41.201Z,98157.69
2023-04-11T19:20:39.485Z,98150.06
2023-04-11T19:23:06.149Z,98143.00
2023-04-11T19:25:32.801Z,98145.78
2023-04-11T19:27:59.458Z,98142.50
2023-04-11T19:30:26.483Z,98142.41
2023-04-11T19:32:53.202Z,98137.19
2023-04-11T19:35:24.378Z,98133.38
2023-04-11T19:40:28.611Z,98133.53
2023-04-11T19:45:32.992Z,98122.91
2023-04-11T19:48:00.223Z,98116.75
2023-04-11T19:50:27.382Z,98124.91
2023-04-11T19:52:58.493Z,98125.56
2023-04-11T19:55:25.264Z,98115.19
2023-04-11T19:57:51.873Z,98115.47
2023-04-11T20:00:18.810Z,98112.13
2023-04-11T20:02:50.695Z,98108.97
2023-04-11T20:05:19.452Z,98113.97
2023-04-11T20:12:57.378Z,98104.84
2023-04-11T20:17:57.316Z,98092.06
2023-04-11T20:20:28.249Z,98097.88
2023-04-11T20:25:26.800Z,98086.34
2023-04-11T20:27:53.484Z,98086.34
2023-04-11T20:30:20.236Z,98088.00
2023-04-11T20:32:46.903Z,98075.94
2023-04-11T20:35:14.188Z,98069.59
2023-04-11T20:37:43.870Z,98074.38
2023-04-11T20:40:11.340Z,98078.75
2023-04-11T20:42:46.073Z,98074.75
2023-04-11T20:45:15.974Z,98072.72
2023-04-11T20:47:46.291Z,98067.38
2023-04-11T20:50:14.751Z,98060.16
2023-04-11T20:52:43.864Z,98063.00
2023-04-11T20:55:10.972Z,98055.44
2023-04-11T20:57:37.672Z,98043.88
2023-04-11T21:02:46.095Z,98048.75
2023-04-11T21:05:14.020Z,98045.00
2023-04-11T21:07:42.314Z,98039.22
2023-04-11T21:10:09.972Z,98047.50
2023-04-11T21:12:37.294Z,98047.84
2023-04-11T21:15:04.736Z,98044.19
2023-04-11T21:17:34.189Z,98044.78
2023-04-11T21:20:02.238Z,98032.38
2023-04-11T21:25:04.798Z,98023.84
2023-04-11T21:27:31.493Z,98032.03
2023-04-11T21:29:58.244Z,98019.09
2023-04-11T21:32:25.461Z,98022.44
2023-04-11T21:34:52.173Z,98014.84
2023-04-11T21:37:18.847Z,98016.81
2023-04-11T21:42:19.238Z,98003.50
2023-04-11T21:44:46.287Z,97998.03
2023-04-11T21:47:12.925Z,98007.56
2023-04-11T21:49:39.568Z,97996.13
2023-04-11T21:52:06.358Z,97998.63
2023-04-11T21:54:33.993Z,97992.44
2023-04-11T21:57:01.887Z,97988.53
2023-04-11T21:59:28.533Z,97979.56
2023-04-11T22:01:55.336Z,97976.75
2023-04-11T22:04:23.383Z,97969.59
2023-04-11T22:06:50.112Z,97965.03
2023-04-11T22:09:20.626Z,97961.31
2023-04-11T22:11:47.347Z,97952.38
2023-04-11T22:14:16.538Z,97948.72
2023-04-11T22:16:49.527Z,97946.00
2023-04-11T22:19:21.093Z,97934.63
2023-04-11T22:21:55.999Z,97936.66
2023-04-11T22:24:30.441Z,97941.09
2023-04-11T22:27:04.285Z,97935.41
2023-04-11T22:29:31.362Z,97925.38
2023-04-11T22:31:59.829Z,97924.28
2023-04-11T22:34:27.292Z,97914.13
2023-04-11T22:36:53.999Z,97907.38
2023-04-11T22:39:22.177Z,97903.56
2023-04-11T22:41:50.730Z,97903.00
2023-04-11T22:44:18.018Z,97890.50
2023-04-11T22:47:06.574Z,97891.78
2023-04-11T22:49:40.953Z,97881.28
2023-04-11T22:52:09.103Z,97875.41
2023-04-11T22:57:07.274Z,97863.69
2023-04-11T22:59:33.933Z,97861.88
2023-04-11T23:02:00.740Z,97860.28
2023-04-11T23:04:27.505Z,97861.13
2023-04-11T23:06:54.536Z,97858.97
2023-04-11T23:09:21.644Z,97858.91
2023-04-11T23:11:48.978Z,97875.06
2023-04-11T23:14:18.265Z,97868.00
2023-04-11T23:16:45.368Z,97854.22
2023-04-11T23:19:12.191Z,97860.69
2023-04-11T23:21:38.934Z,97859.31
2023-04-11T23:24:07.110Z,97853.38
2023-04-11T23:26:34.067Z,97851.94
2023-04-11T23:29:02.791Z,97850.66
2023-04-11T23:31:30.677Z,97844.09
2023-04-11T23:33:57.653Z,97837.78
2023-04-11T23:36:24.556Z,97834.19
2023-04-11T23:38:51.974Z,97834.16
2023-04-11T23:41:18.873Z,97828.38
2023-04-11T23:43:45.801Z,97830.69
2023-04-11T23:46:13.621Z,97823.25
2023-04-11T23:48:40.369Z,97824.47
2023-04-11T23:51:07.448Z,97820.97
2023-04-11T23:53:34.340Z,97819.31
2023-04-11T23:56:01.072Z,97818.19
2023-04-11T23:58:27.700Z,97832.66
